Flight Number: EUR1129 Duration: 1:20
Departure: Moscow Sheremetyevo (UUEE) at 18:20 Distance: 473 Nm
Arrival: Helsinki Vantaa (EFHK) at 19:40 Equipment: A321

Weather Information
Moscow / Sheremet'Ye , Russia (UUEE) 55-59N 037-30E Aug 19, 2018 - 04:30 AM EDT / 2018.08.19 0830 UTC
Wind: from the S (170 degrees) at 9 MPH (8 KT):0
Visibility: greater than 7 mile(s):0 Temperature: 75 F (24 C) Dew Point: 51 F (11 C) Relative Humidity: 43% Pressure (altimeter): 30.12 in. Hg (1020 hPa)
ob: UUEE 190830Z 17004MPS CAVOK 24/11 Q1020 R24C/CLRD62 R24L/CLRD62 NOSIG cycle: 8
Sunrise: 02:14 Sunset: 16:53 (UTC)

Helsinki-Vantaa, Finland (EFHK) 60-19N 024-58E 56M Aug 19, 2018 - 04:50 AM EDT / 2018.08.19 0850 UTC
Wind: from the WSW (240 degrees) at 17 MPH (15 KT):0
Visibility: greater than 7 mile(s):0
Sky conditions: mostly cloudy Temperature: 66 F (19 C) Dew Point: 59 F (15 C) Relative Humidity: 77% Pressure (altimeter): 29.77 in. Hg (1008 hPa)
ob: EFHK 190850Z 24015KT 9999 BKN017 19/15 Q1008 NOSIG cycle: 9
Sunrise: 02:49 Sunset: 17:58 (UTC)

TAF:2018/08/19 09:42 TAF TAF EFHK 190832Z 1909/2009 23012KT 9999 SCT014 BECMG 2001/2003 15004KT PROB40 2007/2009 SCT040CB BKN050

Previous Pireps for this route
Date Aircraft Flight time Fuel used Landing rate On time
2012-11-22A32101.4610554-318Yes
2013-08-15A32101.349686-165No
2013-09-17A32101.4613775-195Yes
2013-10-18A3211.20263100No
2013-12-30B7372.00150000Charter
2014-06-12A32100.2215144-234No
2015-01-08A32102.1312655-58Yes
2015-03-20A32101.3111337-326Yes
2015-09-16A32101.2712944-178No
(pireps marked green are flown by you)

Route map